sensor_id;sensor_type;location;lat;lon;timestamp;temperature;humidity
69731;SHT31;56996;48.138;11.538;2023-04-08T00:00:11;7.55;67.66
69731;SHT31;56996;48.138;11.538;2023-04-08T00:02:38;7.49;68.00
69731;SHT31;56996;48.138;11.538;2023-04-08T00:05:05;7.48;67.99
69731;SHT31;56996;48.138;11.538;2023-04-08T00:07:32;7.47;68.20
69731;SHT31;56996;48.138;11.538;2023-04-08T00:09:58;7.43;68.35
69731;SHT31;56996;48.138;11.538;2023-04-08T00:12:24;7.43;68.42
69731;SHT31;56996;48.138;11.538;2023-04-08T00:14:50;7.41;68.65
69731;SHT31;56996;48.138;11.538;2023-04-08T00:17:16;7.36;68.82
69731;SHT31;56996;48.138;11.538;2023-04-08T00:19:42;7.35;68.93
69731;SHT31;56996;48.138;11.538;2023-04-08T00:22:09;7.35;69.06
69731;SHT31;56996;48.138;11.538;2023-04-08T00:24:36;7.34;69.13
69731;SHT31;56996;48.138;11.538;2023-04-08T00:27:02;7.30;69.38
69731;SHT31;56996;48.138;11.538;2023-04-08T00:29:28;7.28;69.45
69731;SHT31;56996;48.138;11.538;2023-04-08T00:31:55;7.27;69.43
69731;SHT31;56996;48.138;11.538;2023-04-08T00:34:21;7.25;69.68
69731;SHT31;56996;48.138;11.538;2023-04-08T00:36:47;7.20;69.70
69731;SHT31;56996;48.138;11.538;2023-04-08T00:39:13;7.19;69.82
69731;SHT31;56996;48.138;11.538;2023-04-08T00:41:40;7.18;69.88
69731;SHT31;56996;48.138;11.538;2023-04-08T00:44:06;7.17;69.97
69731;SHT31;56996;48.138;11.538;2023-04-08T00:46:35;7.16;70.09
69731;SHT31;56996;48.138;11.538;2023-04-08T00:49:04;7.14;70.23
69731;SHT31;56996;48.138;11.538;2023-04-08T00:51:32;7.11;70.38
69731;SHT31;56996;48.138;11.538;2023-04-08T00:54:01;7.07;70.58
69731;SHT31;56996;48.138;11.538;2023-04-08T00:56:32;7.00;70.72
69731;SHT31;56996;48.138;11.538;2023-04-08T00:58:59;6.97;70.90
69731;SHT31;56996;48.138;11.538;2023-04-08T01:07:07;6.93;71.07
69731;SHT31;56996;48.138;11.538;2023-04-08T01:09:44;6.89;71.18
69731;SHT31;56996;48.138;11.538;2023-04-08T01:12:28;6.87;71.36
69731;SHT31;56996;48.138;11.538;2023-04-08T01:15:04;6.80;71.55
69731;SHT31;56996;48.138;11.538;2023-04-08T01:17:33;6.76;71.64
69731;SHT31;56996;48.138;11.538;2023-04-08T01:20:02;6.71;71.88
69731;SHT31;56996;48.138;11.538;2023-04-08T01:22:33;6.68;71.92
69731;SHT31;56996;48.138;11.538;2023-04-08T01:25:14;6.67;72.00
69731;SHT31;56996;48.138;11.538;2023-04-08T01:27:43;6.65;72.05
69731;SHT31;56996;48.138;11.538;2023-04-08T01:30:11;6.63;72.14
69731;SHT31;56996;48.138;11.538;2023-04-08T01:32:39;6.62;72.29
69731;SHT31;56996;48.138;11.538;2023-04-08T01:35:09;6.57;72.45
69731;SHT31;56996;48.138;11.538;2023-04-08T01:37:36;6.55;72.57
69731;SHT31;56996;48.138;11.538;2023-04-08T01:40:03;6.51;72.69
69731;SHT31;56996;48.138;11.538;2023-04-08T01:42:34;6.50;72.74
69731;SHT31;56996;48.138;11.538;2023-04-08T01:45:01;6.48;72.91
69731;SHT31;56996;48.138;11.538;2023-04-08T01:47:28;6.45;73.04
69731;SHT31;56996;48.138;11.538;2023-04-08T01:49:55;6.43;73.12
69731;SHT31;56996;48.138;11.538;2023-04-08T01:52:22;6.41;73.23
69731;SHT31;56996;48.138;11.538;2023-04-08T01:54:51;6.39;73.32
69731;SHT31;56996;48.138;11.538;2023-04-08T01:57:25;6.36;73.40
69731;SHT31;56996;48.138;11.538;2023-04-08T01:59:55;6.34;73.54
69731;SHT31;56996;48.138;11.538;2023-04-08T02:02:25;6.31;73.69
69731;SHT31;56996;48.138;11.538;2023-04-08T02:04:53;6.30;73.70
69731;SHT31;56996;48.138;11.538;2023-04-08T02:07:20;6.29;73.77
69731;SHT31;56996;48.138;11.538;2023-04-08T02:09:46;6.27;73.92
69731;SHT31;56996;48.138;11.538;2023-04-08T02:12:12;6.23;74.00
69731;SHT31;56996;48.138;11.538;2023-04-08T02:14:38;6.24;74.00
69731;SHT31;56996;48.138;11.538;2023-04-08T02:17:07;6.21;74.12
69731;SHT31;56996;48.138;11.538;2023-04-08T02:19:50;6.18;74.37
69731;SHT31;56996;48.138;11.538;2023-04-08T02:25:14;6.14;74.46
69731;SHT31;56996;48.138;11.538;2023-04-08T02:27:42;6.12;74.52
69731;SHT31;56996;48.138;11.538;2023-04-08T02:30:11;6.10;74.58
69731;SHT31;56996;48.138;11.538;2023-04-08T02:32:39;6.09;74.58
69731;SHT31;56996;48.138;11.538;2023-04-08T02:35:07;6.09;74.59
69731;SHT31;56996;48.138;11.538;2023-04-08T02:37:36;6.09;74.63
69731;SHT31;56996;48.138;11.538;2023-04-08T02:40:03;6.07;74.70
69731;SHT31;56996;48.138;11.538;2023-04-08T02:42:29;6.07;74.72
69731;SHT31;56996;48.138;11.538;2023-04-08T02:44:55;6.06;74.86
69731;SHT31;56996;48.138;11.538;2023-04-08T02:47:22;6.03;75.08
69731;SHT31;56996;48.138;11.538;2023-04-08T02:49:49;6.00;75.18
69731;SHT31;56996;48.138;11.538;2023-04-08T02:52:18;6.01;75.17
69731;SHT31;56996;48.138;11.538;2023-04-08T02:54:44;6.01;75.29
69731;SHT31;56996;48.138;11.538;2023-04-08T02:57:10;5.98;75.40
69731;SHT31;56996;48.138;11.538;2023-04-08T02:59:37;5.98;75.40
69731;SHT31;56996;48.138;11.538;2023-04-08T03:02:05;6.00;75.47
69731;SHT31;56996;48.138;11.538;2023-04-08T03:04:31;6.00;75.47
69731;SHT31;56996;48.138;11.538;2023-04-08T03:06:57;6.02;75.45
69731;SHT31;56996;48.138;11.538;2023-04-08T03:09:23;6.04;75.49
69731;SHT31;56996;48.138;11.538;2023-04-08T03:11:49;6.07;75.41
69731;SHT31;56996;48.138;11.538;2023-04-08T03:14:17;6.09;75.49
69731;SHT31;56996;48.138;11.538;2023-04-08T03:16:43;6.09;75.74
69731;SHT31;56996;48.138;11.538;2023-04-08T03:19:09;6.12;75.58
69731;SHT31;56996;48.138;11.538;2023-04-08T03:21:35;6.16;75.52
69731;SHT31;56996;48.138;11.538;2023-04-08T03:24:01;6.19;75.50
69731;SHT31;56996;48.138;11.538;2023-04-08T03:26:27;6.23;75.45
69731;SHT31;56996;48.138;11.538;2023-04-08T03:28:53;6.27;75.40
69731;SHT31;56996;48.138;11.538;2023-04-08T03:31:20;6.30;75.40
69731;SHT31;56996;48.138;11.538;2023-04-08T03:33:46;6.31;75.42
69731;SHT31;56996;48.138;11.538;2023-04-08T03:36:12;6.30;75.50
69731;SHT31;56996;48.138;11.538;2023-04-08T03:38:38;6.31;75.56
69731;SHT31;56996;48.138;11.538;2023-04-08T03:41:04;6.33;75.51
69731;SHT31;56996;48.138;11.538;2023-04-08T03:43:30;6.36;75.51
69731;SHT31;56996;48.138;11.538;2023-04-08T03:45:57;6.36;75.56
69731;SHT31;56996;48.138;11.538;2023-04-08T03:48:23;6.37;75.58
69731;SHT31;56996;48.138;11.538;2023-04-08T03:50:49;6.39;75.61
69731;SHT31;56996;48.138;11.538;2023-04-08T03:53:15;6.38;75.70
69731;SHT31;56996;48.138;11.538;2023-04-08T03:55:41;6.41;75.60
69731;SHT31;56996;48.138;11.538;2023-04-08T03:58:07;6.46;75.54
69731;SHT31;56996;48.138;11.538;2023-04-08T04:00:34;6.47;75.50
69731;SHT31;56996;48.138;11.538;2023-04-08T04:03:00;6.50;75.48
69731;SHT31;56996;48.138;11.538;2023-04-08T04:05:26;6.51;75.50
69731;SHT31;56996;48.138;11.538;2023-04-08T04:07:53;6.52;75.52
69731;SHT31;56996;48.138;11.538;2023-04-08T04:10:19;6.53;75.50
69731;SHT31;56996;48.138;11.538;2023-04-08T04:12:45;6.56;75.46
69731;SHT31;56996;48.138;11.538;2023-04-08T04:15:12;6.57;75.51
69731;SHT31;56996;48.138;11.538;2023-04-08T04:17:38;6.53;75.61
69731;SHT31;56996;48.138;11.538;2023-04-08T04:20:04;6.51;75.68
69731;SHT31;56996;48.138;11.538;2023-04-08T04:22:31;6.51;75.71
69731;SHT31;56996;48.138;11.538;2023-04-08T04:24:57;6.52;75.79
69731;SHT31;56996;48.138;11.538;2023-04-08T04:27:23;6.52;75.77
69731;SHT31;56996;48.138;11.538;2023-04-08T04:29:49;6.55;75.70
69731;SHT31;56996;48.138;11.538;2023-04-08T04:32:15;6.57;75.68
69731;SHT31;56996;48.138;11.538;2023-04-08T04:34:41;6.60;75.62
69731;SHT31;56996;48.138;11.538;2023-04-08T04:37:08;6.64;75.52
69731;SHT31;56996;48.138;11.538;2023-04-08T04:39:35;6.66;75.57
69731;SHT31;56996;48.138;11.538;2023-04-08T04:42:01;6.66;75.62
69731;SHT31;56996;48.138;11.538;2023-04-08T04:44:28;6.66;75.62
69731;SHT31;56996;48.138;11.538;2023-04-08T04:46:54;6.67;75.69
69731;SHT31;56996;48.138;11.538;2023-04-08T04:49:20;6.69;75.65
69731;SHT31;56996;48.138;11.538;2023-04-08T04:51:46;6.73;75.62
69731;SHT31;56996;48.138;11.538;2023-04-08T04:54:12;6.74;75.74
69731;SHT31;56996;48.138;11.538;2023-04-08T04:56:38;6.71;76.12
69731;SHT31;56996;48.138;11.538;2023-04-08T04:59:04;6.65;76.28
69731;SHT31;56996;48.138;11.538;2023-04-08T05:01:31;6.64;76.29
69731;SHT31;56996;48.138;11.538;2023-04-08T05:03:57;6.68;76.07
69731;SHT31;56996;48.138;11.538;2023-04-08T05:06:23;6.77;75.87
69731;SHT31;56996;48.138;11.538;2023-04-08T05:08:49;6.82;75.91
69731;SHT31;56996;48.138;11.538;2023-04-08T05:11:16;6.85;75.77
69731;SHT31;56996;48.138;11.538;2023-04-08T05:13:46;6.95;75.57
69731;SHT31;56996;48.138;11.538;2023-04-08T05:16:12;7.04;75.41
69731;SHT31;56996;48.138;11.538;2023-04-08T05:18:38;7.12;75.27
69731;SHT31;56996;48.138;11.538;2023-04-08T05:21:04;7.19;75.14
69731;SHT31;56996;48.138;11.538;2023-04-08T05:23:30;7.26;75.00
69731;SHT31;56996;48.138;11.538;2023-04-08T05:25:56;7.31;74.92
69731;SHT31;56996;48.138;11.538;2023-04-08T05:28:22;7.39;74.80
69731;SHT31;56996;48.138;11.538;2023-04-08T05:30:49;7.43;74.70
69731;SHT31;56996;48.138;11.538;2023-04-08T05:33:16;7.45;74.80
69731;SHT31;56996;48.138;11.538;2023-04-08T05:35:42;7.50;74.90
69731;SHT31;56996;48.138;11.538;2023-04-08T05:38:09;7.54;74.77
69731;SHT31;56996;48.138;11.538;2023-04-08T05:40:35;7.59;74.74
69731;SHT31;56996;48.138;11.538;2023-04-08T05:43:01;7.66;74.55
69731;SHT31;56996;48.138;11.538;2023-04-08T05:45:28;7.71;74.43
69731;SHT31;56996;48.138;11.538;2023-04-08T05:47:55;7.73;74.41
69731;SHT31;56996;48.138;11.538;2023-04-08T05:50:21;7.81;74.27
69731;SHT31;56996;48.138;11.538;2023-04-08T05:52:47;7.87;74.15
69731;SHT31;56996;48.138;11.538;2023-04-08T05:55:13;7.92;74.02
69731;SHT31;56996;48.138;11.538;2023-04-08T05:57:39;7.97;73.90
69731;SHT31;56996;48.138;11.538;2023-04-08T06:00:06;8.02;73.76
69731;SHT31;56996;48.138;11.538;2023-04-08T06:02:35;8.06;73.63
69731;SHT31;56996;48.138;11.538;2023-04-08T06:05:02;8.07;73.68
69731;SHT31;56996;48.138;11.538;2023-04-08T06:07:29;8.09;73.59
69731;SHT31;56996;48.138;11.538;2023-04-08T06:09:57;8.18;73.43
69731;SHT31;56996;48.138;11.538;2023-04-08T06:12:23;8.26;73.22
69731;SHT31;56996;48.138;11.538;2023-04-08T06:14:52;8.32;73.07
69731;SHT31;56996;48.138;11.538;2023-04-08T06:17:20;8.41;72.91
69731;SHT31;56996;48.138;11.538;2023-04-08T06:19:46;8.46;72.71
69731;SHT31;56996;48.138;11.538;2023-04-08T06:22:12;8.53;72.64
69731;SHT31;56996;48.138;11.538;2023-04-08T06:24:38;8.55;72.48
69731;SHT31;56996;48.138;11.538;2023-04-08T06:27:04;8.59;72.32
69731;SHT31;56996;48.138;11.538;2023-04-08T06:29:31;8.56;72.26
69731;SHT31;56996;48.138;11.538;2023-04-08T06:31:58;8.59;72.16
69731;SHT31;56996;48.138;11.538;2023-04-08T06:34:24;8.49;72.37
69731;SHT31;56996;48.138;11.538;2023-04-08T06:36:50;8.35;72.72
69731;SHT31;56996;48.138;11.538;2023-04-08T06:39:16;8.23;73.14
69731;SHT31;56996;48.138;11.538;2023-04-08T06:41:44;8.16;73.31
69731;SHT31;56996;48.138;11.538;2023-04-08T06:44:26;8.13;73.12
69731;SHT31;56996;48.138;11.538;2023-04-08T06:46:52;8.14;73.16
69731;SHT31;56996;48.138;11.538;2023-04-08T06:49:18;8.12;73.54
69731;SHT31;56996;48.138;11.538;2023-04-08T06:51:44;8.08;73.79
69731;SHT31;56996;48.138;11.538;2023-04-08T06:54:10;8.01;73.73
69731;SHT31;56996;48.138;11.538;2023-04-08T06:56:36;8.00;73.72
69731;SHT31;56996;48.138;11.538;2023-04-08T06:59:03;7.99;73.74
69731;SHT31;56996;48.138;11.538;2023-04-08T07:01:31;7.98;73.91
69731;SHT31;56996;48.138;11.538;2023-04-08T07:03:57;7.96;73.77
69731;SHT31;56996;48.138;11.538;2023-04-08T07:06:23;7.94;73.56
69731;SHT31;56996;48.138;11.538;2023-04-08T07:08:49;8.00;73.33
69731;SHT31;56996;48.138;11.538;2023-04-08T07:11:15;8.06;73.08
69731;SHT31;56996;48.138;11.538;2023-04-08T07:13:41;8.10;73.40
69731;SHT31;56996;48.138;11.538;2023-04-08T07:16:08;8.08;73.47
69731;SHT31;56996;48.138;11.538;2023-04-08T07:18:34;8.05;73.31
69731;SHT31;56996;48.138;11.538;2023-04-08T07:21:01;8.04;73.43
69731;SHT31;56996;48.138;11.538;2023-04-08T07:23:27;8.01;73.12
69731;SHT31;56996;48.138;11.538;2023-04-08T07:25:53;8.02;72.62
69731;SHT31;56996;48.138;11.538;2023-04-08T07:28:19;8.08;72.39
69731;SHT31;56996;48.138;11.538;2023-04-08T07:30:45;8.10;72.49
69731;SHT31;56996;48.138;11.538;2023-04-08T07:33:12;8.07;72.42
69731;SHT31;56996;48.138;11.538;2023-04-08T07:35:38;8.05;71.60
69731;SHT31;56996;48.138;11.538;2023-04-08T07:38:04;7.98;68.88
69731;SHT31;56996;48.138;11.538;2023-04-08T07:40:35;8.03;69.24
69731;SHT31;56996;48.138;11.538;2023-04-08T07:43:01;8.07;69.37
69731;SHT31;56996;48.138;11.538;2023-04-08T07:45:28;8.05;69.09
69731;SHT31;56996;48.138;11.538;2023-04-08T07:47:54;8.03;69.72
69731;SHT31;56996;48.138;11.538;2023-04-08T07:50:20;8.03;69.52
69731;SHT31;56996;48.138;11.538;2023-04-08T07:52:46;8.06;65.67
69731;SHT31;56996;48.138;11.538;2023-04-08T07:55:12;8.10;64.69
69731;SHT31;56996;48.138;11.538;2023-04-08T07:57:38;8.22;64.09
69731;SHT31;56996;48.138;11.538;2023-04-08T08:00:04;8.23;61.78
69731;SHT31;56996;48.138;11.538;2023-04-08T08:02:38;8.17;60.89
69731;SHT31;56996;48.138;11.538;2023-04-08T08:05:04;8.17;60.00
69731;SHT31;56996;48.138;11.538;2023-04-08T08:07:31;8.17;59.50
69731;SHT31;56996;48.138;11.538;2023-04-08T08:09:56;8.17;60.15
69731;SHT31;56996;48.138;11.538;2023-04-08T08:12:22;8.22;60.00
69731;SHT31;56996;48.138;11.538;2023-04-08T08:14:48;8.23;59.64
69731;SHT31;56996;48.138;11.538;2023-04-08T08:17:15;8.24;59.70
69731;SHT31;56996;48.138;11.538;2023-04-08T08:19:41;8.24;60.22
69731;SHT31;56996;48.138;11.538;2023-04-08T08:22:07;8.26;61.15
69731;SHT31;56996;48.138;11.538;2023-04-08T08:24:33;8.33;61.64
69731;SHT31;56996;48.138;11.538;2023-04-08T08:26:59;8.25;61.74
69731;SHT31;56996;48.138;11.538;2023-04-08T08:29:25;8.18;62.33
69731;SHT31;56996;48.138;11.538;2023-04-08T08:31:51;8.10;62.29
69731;SHT31;56996;48.138;11.538;2023-04-08T08:34:17;8.03;61.84
69731;SHT31;56996;48.138;11.538;2023-04-08T08:36:43;7.97;62.54
69731;SHT31;56996;48.138;11.538;2023-04-08T08:39:09;7.94;62.15
69731;SHT31;56996;48.138;11.538;2023-04-08T08:41:35;7.95;62.63
69731;SHT31;56996;48.138;11.538;2023-04-08T08:44:04;8.00;61.84
69731;SHT31;56996;48.138;11.538;2023-04-08T08:46:31;7.95;61.82
69731;SHT31;56996;48.138;11.538;2023-04-08T08:48:58;7.91;61.73
69731;SHT31;56996;48.138;11.538;2023-04-08T08:51:24;7.83;61.40
69731;SHT31;56996;48.138;11.538;2023-04-08T08:53:50;7.75;61.76
69731;SHT31;56996;48.138;11.538;2023-04-08T08:56:17;7.70;62.33
69731;SHT31;56996;48.138;11.538;2023-04-08T08:58:44;7.78;63.28
69731;SHT31;56996;48.138;11.538;2023-04-08T09:01:30;7.79;63.61
69731;SHT31;56996;48.138;11.538;2023-04-08T09:04:14;7.78;64.36
69731;SHT31;56996;48.138;11.538;2023-04-08T09:06:44;7.82;64.87
69731;SHT31;56996;48.138;11.538;2023-04-08T09:09:14;7.79;65.69
69731;SHT31;56996;48.138;11.538;2023-04-08T09:11:41;7.81;65.91
69731;SHT31;56996;48.138;11.538;2023-04-08T09:14:24;7.75;65.93
69731;SHT31;56996;48.138;11.538;2023-04-08T09:16:51;7.59;65.75
69731;SHT31;56996;48.138;11.538;2023-04-08T09:19:17;7.47;65.92
69731;SHT31;56996;48.138;11.538;2023-04-08T09:21:43;7.41;65.81
69731;SHT31;56996;48.138;11.538;2023-04-08T09:24:25;7.36;65.84
69731;SHT31;56996;48.138;11.538;2023-04-08T09:26:54;7.31;65.73
69731;SHT31;56996;48.138;11.538;2023-04-08T09:29:22;7.30;65.52
69731;SHT31;56996;48.138;11.538;2023-04-08T09:31:59;7.32;65.54
69731;SHT31;56996;48.138;11.538;2023-04-08T09:34:27;7.29;65.80
69731;SHT31;56996;48.138;11.538;2023-04-08T09:36:56;7.19;65.90
69731;SHT31;56996;48.138;11.538;2023-04-08T09:39:22;7.16;66.03
69731;SHT31;56996;48.138;11.538;2023-04-08T09:41:49;7.21;65.69
69731;SHT31;56996;48.138;11.538;2023-04-08T09:44:17;7.20;65.67
69731;SHT31;56996;48.138;11.538;2023-04-08T09:49:23;7.23;65.26
69731;SHT31;56996;48.138;11.538;2023-04-08T09:55:01;7.39;65.01
69731;SHT31;56996;48.138;11.538;2023-04-08T09:57:36;7.43;64.73
69731;SHT31;56996;48.138;11.538;2023-04-08T10:00:12;7.42;64.79
69731;SHT31;56996;48.138;11.538;2023-04-08T10:02:55;7.54;65.04
69731;SHT31;56996;48.138;11.538;2023-04-08T10:05:44;7.72;64.39
69731;SHT31;56996;48.138;11.538;2023-04-08T10:08:12;7.75;63.48
69731;SHT31;56996;48.138;11.538;2023-04-08T10:10:38;7.79;63.81
69731;SHT31;56996;48.138;11.538;2023-04-08T10:13:06;7.98;63.78
69731;SHT31;56996;48.138;11.538;2023-04-08T10:15:33;8.17;63.16
69731;SHT31;56996;48.138;11.538;2023-04-08T10:23:04;8.48;62.28
69731;SHT31;56996;48.138;11.538;2023-04-08T10:25:32;8.69;62.57
69731;SHT31;56996;48.138;11.538;2023-04-08T10:28:01;9.01;62.40
69731;SHT31;56996;48.138;11.538;2023-04-08T10:30:47;9.22;61.36
69731;SHT31;56996;48.138;11.538;2023-04-08T10:33:22;9.24;60.98
69731;SHT31;56996;48.138;11.538;2023-04-08T10:35:58;9.12;60.72
69731;SHT31;56996;48.138;11.538;2023-04-08T10:38:38;9.03;61.12
69731;SHT31;56996;48.138;11.538;2023-04-08T10:41:04;9.04;60.97
69731;SHT31;56996;48.138;11.538;2023-04-08T10:43:31;8.93;61.18
69731;SHT31;56996;48.138;11.538;2023-04-08T10:45:59;8.86;61.41
69731;SHT31;56996;48.138;11.538;2023-04-08T10:48:26;9.00;61.61
69731;SHT31;56996;48.138;11.538;2023-04-08T10:50:55;9.12;61.14
69731;SHT31;56996;48.138;11.538;2023-04-08T10:53:24;9.08;60.42
69731;SHT31;56996;48.138;11.538;2023-04-08T10:55:51;8.90;60.93
69731;SHT31;56996;48.138;11.538;2023-04-08T10:58:18;8.91;61.50
69731;SHT31;56996;48.138;11.538;2023-04-08T11:00:44;8.82;61.09
69731;SHT31;56996;48.138;11.538;2023-04-08T11:03:10;8.68;61.77
69731;SHT31;56996;48.138;11.538;2023-04-08T11:05:39;8.54;62.00
69731;SHT31;56996;48.138;11.538;2023-04-08T11:08:05;8.49;62.51
69731;SHT31;56996;48.138;11.538;2023-04-08T11:10:35;8.41;62.63
69731;SHT31;56996;48.138;11.538;2023-04-08T11:13:05;8.38;63.12
69731;SHT31;56996;48.138;11.538;2023-04-08T11:15:34;8.33;63.15
69731;SHT31;56996;48.138;11.538;2023-04-08T11:18:02;8.26;63.74
69731;SHT31;56996;48.138;11.538;2023-04-08T11:20:30;8.24;63.82
69731;SHT31;56996;48.138;11.538;2023-04-08T11:23:00;8.22;64.31
69731;SHT31;56996;48.138;11.538;2023-04-08T11:25:26;8.19;64.25
69731;SHT31;56996;48.138;11.538;2023-04-08T11:27:53;8.16;64.28
69731;SHT31;56996;48.138;11.538;2023-04-08T11:30:20;8.20;64.58
69731;SHT31;56996;48.138;11.538;2023-04-08T11:32:46;8.18;64.96
69731;SHT31;56996;48.138;11.538;2023-04-08T11:35:12;8.22;64.97
69731;SHT31;56996;48.138;11.538;2023-04-08T11:37:41;8.18;64.80
69731;SHT31;56996;48.138;11.538;2023-04-08T11:40:08;8.10;65.12
69731;SHT31;56996;48.138;11.538;2023-04-08T11:42:36;8.06;65.28
69731;SHT31;56996;48.138;11.538;2023-04-08T11:45:10;8.05;65.56
69731;SHT31;56996;48.138;11.538;2023-04-08T11:47:37;8.04;65.38
69731;SHT31;56996;48.138;11.538;2023-04-08T11:50:04;7.97;65.12
69731;SHT31;56996;48.138;11.538;2023-04-08T11:55:22;7.82;66.19
69731;SHT31;56996;48.138;11.538;2023-04-08T11:57:51;7.83;66.60
69731;SHT31;56996;48.138;11.538;2023-04-08T12:00:19;7.82;66.83
69731;SHT31;56996;48.138;11.538;2023-04-08T12:02:46;7.85;66.45
69731;SHT31;56996;48.138;11.538;2023-04-08T12:05:13;7.88;66.48
69731;SHT31;56996;48.138;11.538;2023-04-08T12:07:41;7.85;66.80
69731;SHT31;56996;48.138;11.538;2023-04-08T12:10:10;7.81;66.67
69731;SHT31;56996;48.138;11.538;2023-04-08T12:12:37;7.76;67.01
69731;SHT31;56996;48.138;11.538;2023-04-08T12:15:04;7.72;67.02
69731;SHT31;56996;48.138;11.538;2023-04-08T12:17:31;7.72;67.10
69731;SHT31;56996;48.138;11.538;2023-04-08T12:19:57;7.72;66.77
69731;SHT31;56996;48.138;11.538;2023-04-08T12:22:23;7.70;66.56
69731;SHT31;56996;48.138;11.538;2023-04-08T12:24:49;7.72;66.28
69731;SHT31;56996;48.138;11.538;2023-04-08T12:27:15;7.68;66.03
69731;SHT31;56996;48.138;11.538;2023-04-08T12:29:41;7.66;66.28
69731;SHT31;56996;48.138;11.538;2023-04-08T12:32:07;7.64;66.27
69731;SHT31;56996;48.138;11.538;2023-04-08T12:34:34;7.70;66.27
69731;SHT31;56996;48.138;11.538;2023-04-08T12:37:00;7.67;66.22
69731;SHT31;56996;48.138;11.538;2023-04-08T12:39:27;7.69;66.13
69731;SHT31;56996;48.138;11.538;2023-04-08T12:41:53;7.64;66.24
69731;SHT31;56996;48.138;11.538;2023-04-08T12:44:19;7.58;66.21
69731;SHT31;56996;48.138;11.538;2023-04-08T12:46:45;7.46;66.65
69731;SHT31;56996;48.138;11.538;2023-04-08T12:49:11;7.41;66.90
69731;SHT31;56996;48.138;11.538;2023-04-08T12:51:37;7.42;67.07
69731;SHT31;56996;48.138;11.538;2023-04-08T12:54:04;7.40;67.24
69731;SHT31;56996;48.138;11.538;2023-04-08T12:56:30;7.39;67.13
69731;SHT31;56996;48.138;11.538;2023-04-08T12:58:58;7.41;67.03
69731;SHT31;56996;48.138;11.538;2023-04-08T13:01:25;7.40;67.47
69731;SHT31;56996;48.138;11.538;2023-04-08T13:03:52;7.36;67.41
69731;SHT31;56996;48.138;11.538;2023-04-08T13:06:19;7.31;67.55
69731;SHT31;56996;48.138;11.538;2023-04-08T13:08:45;7.32;67.72
69731;SHT31;56996;48.138;11.538;2023-04-08T13:11:11;7.27;68.17
69731;SHT31;56996;48.138;11.538;2023-04-08T13:13:37;7.24;68.37
69731;SHT31;56996;48.138;11.538;2023-04-08T13:16:03;7.20;68.57
69731;SHT31;56996;48.138;11.538;2023-04-08T13:18:30;7.18;68.78
69731;SHT31;56996;48.138;11.538;2023-04-08T13:20:55;7.24;69.00
69731;SHT31;56996;48.138;11.538;2023-04-08T13:23:23;7.20;69.18
69731;SHT31;56996;48.138;11.538;2023-04-08T13:25:49;7.14;69.43
69731;SHT31;56996;48.138;11.538;2023-04-08T13:28:14;7.10;69.77
69731;SHT31;56996;48.138;11.538;2023-04-08T13:30:40;7.05;69.97
69731;SHT31;56996;48.138;11.538;2023-04-08T13:33:07;6.99;70.12
69731;SHT31;56996;48.138;11.538;2023-04-08T13:35:33;6.96;70.05
69731;SHT31;56996;48.138;11.538;2023-04-08T13:37:59;6.96;70.25
69731;SHT31;56996;48.138;11.538;2023-04-08T13:40:25;6.99;70.43
69731;SHT31;56996;48.138;11.538;2023-04-08T13:42:52;6.96;70.39
69731;SHT31;56996;48.138;11.538;2023-04-08T13:45:18;6.91;70.44
69731;SHT31;56996;48.138;11.538;2023-04-08T13:47:44;6.90;70.95
69731;SHT31;56996;48.138;11.538;2023-04-08T13:50:10;6.89;70.94
69731;SHT31;56996;48.138;11.538;2023-04-08T13:52:36;6.93;71.02
69731;SHT31;56996;48.138;11.538;2023-04-08T13:55:03;6.85;70.84
69731;SHT31;56996;48.138;11.538;2023-04-08T13:59:57;6.75;71.02
69731;SHT31;56996;48.138;11.538;2023-04-08T14:02:23;6.70;71.34
69731;SHT31;56996;48.138;11.538;2023-04-08T14:04:49;6.71;71.52
69731;SHT31;56996;48.138;11.538;2023-04-08T14:07:15;6.70;71.67
69731;SHT31;56996;48.138;11.538;2023-04-08T14:09:41;6.69;71.52
69731;SHT31;56996;48.138;11.538;2023-04-08T14:12:07;6.68;71.92
69731;SHT31;56996;48.138;11.538;2023-04-08T14:14:33;6.69;71.81
69731;SHT31;56996;48.138;11.538;2023-04-08T14:16:59;6.69;71.57
69731;SHT31;56996;48.138;11.538;2023-04-08T14:19:26;6.71;71.49
69731;SHT31;56996;48.138;11.538;2023-04-08T14:21:52;6.72;71.59
69731;SHT31;56996;48.138;11.538;2023-04-08T14:24:18;6.72;71.31
69731;SHT31;56996;48.138;11.538;2023-04-08T14:26:44;6.78;71.21
69731;SHT31;56996;48.138;11.538;2023-04-08T14:29:10;6.89;70.90
69731;SHT31;56996;48.138;11.538;2023-04-08T14:31:36;6.91;70.72
69731;SHT31;56996;48.138;11.538;2023-04-08T14:34:02;6.92;70.91
69731;SHT31;56996;48.138;11.538;2023-04-08T14:36:28;6.91;70.85
69731;SHT31;56996;48.138;11.538;2023-04-08T14:38:56;6.92;70.91
69731;SHT31;56996;48.138;11.538;2023-04-08T14:41:22;6.92;71.01
69731;SHT31;56996;48.138;11.538;2023-04-08T14:43:50;6.89;70.80
69731;SHT31;56996;48.138;11.538;2023-04-08T14:46:16;6.91;70.92
69731;SHT31;56996;48.138;11.538;2023-04-08T14:48:42;6.89;70.85
69731;SHT31;56996;48.138;11.538;2023-04-08T14:51:08;6.89;70.64
69731;SHT31;56996;48.138;11.538;2023-04-08T14:53:34;6.94;70.63
69731;SHT31;56996;48.138;11.538;2023-04-08T14:56:01;7.03;70.29
69731;SHT31;56996;48.138;11.538;2023-04-08T14:58:27;7.05;70.15
69731;SHT31;56996;48.138;11.538;2023-04-08T15:00:53;7.13;70.27
69731;SHT31;56996;48.138;11.538;2023-04-08T15:03:20;7.18;70.01
69731;SHT31;56996;48.138;11.538;2023-04-08T15:05:56;7.14;69.95
69731;SHT31;56996;48.138;11.538;2023-04-08T15:08:23;7.11;70.19
69731;SHT31;56996;48.138;11.538;2023-04-08T15:10:49;7.06;70.37
69731;SHT31;56996;48.138;11.538;2023-04-08T15:13:15;7.01;70.60
69731;SHT31;56996;48.138;11.538;2023-04-08T15:15:41;7.04;70.44
69731;SHT31;56996;48.138;11.538;2023-04-08T15:18:07;7.07;70.69
69731;SHT31;56996;48.138;11.538;2023-04-08T15:20:33;7.07;70.56
69731;SHT31;56996;48.138;11.538;2023-04-08T15:22:59;7.06;70.73
69731;SHT31;56996;48.138;11.538;2023-04-08T15:25:25;7.04;70.61
69731;SHT31;56996;48.138;11.538;2023-04-08T15:27:51;7.06;70.72
69731;SHT31;56996;48.138;11.538;2023-04-08T15:30:17;7.07;70.51
69731;SHT31;56996;48.138;11.538;2023-04-08T15:32:49;7.07;70.76
69731;SHT31;56996;48.138;11.538;2023-04-08T15:35:16;7.08;70.70
69731;SHT31;56996;48.138;11.538;2023-04-08T15:37:43;7.07;70.57
69731;SHT31;56996;48.138;11.538;2023-04-08T15:40:08;7.05;70.63
69731;SHT31;56996;48.138;11.538;2023-04-08T15:42:35;7.03;70.89
69731;SHT31;56996;48.138;11.538;2023-04-08T15:45:02;7.02;70.95
69731;SHT31;56996;48.138;11.538;2023-04-08T15:47:29;7.01;71.14
69731;SHT31;56996;48.138;11.538;2023-04-08T15:49:55;6.97;71.42
69731;SHT31;56996;48.138;11.538;2023-04-08T15:52:21;6.94;71.58
69731;SHT31;56996;48.138;11.538;2023-04-08T15:54:47;6.92;71.79